Time;durP1;ratioP1;P1;durP2;ratioP2;P2;SDS_P1;SDS_P2;PMS_P1;PMS_P2;Temp;Humidity;BMP_temperature;BMP_pressure;BME280_temperature;BME280_humidity;BME280_pressure;Samples;Min_cycle;Max_cycle;Signal;HPM_P1;HPM_P2
2022/07/13 00:00:20;;;;;;;5.57;5.23;;;;;;;19.89;100.00;66290.63;5113822;28;20185;-74
2022/07/13 00:02:47;;;;;;;4.60;4.60;;;;;;;19.83;100.00;66283.94;5114325;28;20234;-74
2022/07/13 00:05:13;;;;;;;5.00;5.00;;;;;;;19.77;100.00;66280.41;5113868;28;20212;-74
2022/07/13 00:07:40;;;;;;;4.50;4.50;;;;;;;;;;5113791;28;20209;-74
2022/07/13 00:10:06;;;;;;;4.90;4.80;;;;;;;19.77;100.00;66272.50;5113744;28;20215;-74
2022/07/13 00:12:33;;;;;;;4.17;4.07;;;;;;;19.79;100.00;66282.66;5113636;28;20213;-74
2022/07/13 00:14:59;;;;;;;3.77;3.67;;;;;;;19.82;100.00;66282.25;5113696;28;20231;-74
2022/07/13 00:17:26;;;;;;;4.13;4.13;;;;;;;19.81;100.00;66283.78;5113869;28;20611;-74
2022/07/13 00:19:52;;;;;;;4.53;4.43;;;;;;;19.83;100.00;66283.94;5113635;28;20225;-74
2022/07/13 00:22:18;;;;;;;5.13;5.03;;;;;;;19.86;100.00;66287.28;5113649;28;20235;-74
2022/07/13 00:24:45;;;;;;;4.67;4.67;;;;;;;19.87;100.00;66290.47;5113635;28;20235;-74
2022/07/13 00:27:11;;;;;;;4.50;4.40;;;;;;;19.83;100.00;66289.19;5113854;28;20189;-74
2022/07/13 00:29:38;;;;;;;5.17;4.77;;;;;;;19.84;100.00;66287.13;5113604;28;20200;-74
2022/07/13 00:32:04;;;;;;;6.13;5.33;;;;;;;;;;5095320;28;20193;-74
2022/07/13 00:34:32;;;;;;;4.70;4.70;;;;;;;;;;5095186;28;20319;-74
2022/07/13 00:36:59;;;;;;;5.10;5.00;;;;;;;19.73;100.00;66272.75;5113426;28;20205;-74
2022/07/13 00:39:25;;;;;;;4.83;4.73;;;;;;;;;;5095240;28;20220;-74
2022/07/13 00:41:52;;;;;;;5.40;5.10;;;;;;;19.70;100.00;66272.03;5095285;28;20628;-74
2022/07/13 00:44:18;;;;;;;5.30;5.30;;;;;;;19.70;100.00;66272.03;5113454;28;20205;-74
2022/07/13 00:46:53;;;;;;;5.77;5.73;;;;;;;19.66;100.00;66264.94;5113685;28;20651;-74
2022/07/13 00:49:20;;;;;;;7.07;6.40;;;;;;;19.65;100.00;66263.81;5095193;28;20181;-74
2022/07/13 00:51:47;;;;;;;5.40;5.23;;;;;;;;;;5113361;28;20247;-74
2022/07/13 00:54:14;;;;;;;5.50;5.20;;;;;;;;;;5113284;28;20201;-75
2022/07/13 00:56:40;;;;;;;5.13;5.03;;;;;;;19.57;100.00;66257.47;5113246;28;20190;-75
2022/07/13 00:59:07;;;;;;;5.07;5.07;;;;;;;19.56;100.00;66249.03;5095107;28;20193;-75
2022/07/13 01:01:33;;;;;;;6.30;5.90;;;;;;;;;;5095067;28;20616;-75
2022/07/13 01:04:00;;;;;;;6.77;5.83;;;;;;;;;;5098491;28;20406;-75
2022/07/13 01:06:26;;;;;;;6.47;6.27;;;;;;;19.55;100.00;66252.63;5116971;28;20719;-75
2022/07/13 01:08:53;;;;;;;6.10;5.90;;;;;;;;;;5117280;28;20233;-75
2022/07/13 01:11:19;;;;;;;6.57;6.10;;;;;;;19.52;100.00;66244.56;5116992;28;20189;-75
2022/07/13 01:13:46;;;;;;;6.80;6.70;;;;;;;;;;5116903;28;20212;-75
2022/07/13 01:16:12;;;;;;;6.23;5.93;;;;;;;19.51;100.00;66249.28;5116821;28;20743;-75
2022/07/13 01:18:39;;;;;;;7.30;7.07;;;;;;;19.47;100.00;66247.44;5117377;28;20189;-75
2022/07/13 01:21:06;;;;;;;7.20;7.00;;;;;;;19.48;100.00;66245.34;5116803;28;20193;-75
2022/07/13 01:23:33;;;;;;;6.43;6.23;;;;;;;;;;5117569;28;20258;-75
2022/07/13 01:26:00;;;;;;;6.20;6.10;;;;;;;;;;5116969;28;20181;-75
2022/07/13 01:28:27;;;;;;;7.13;6.93;;;;;;;19.50;100.00;66250.78;5116689;28;20189;-75
2022/07/13 01:30:53;;;;;;;6.03;5.93;;;;;;;19.42;100.00;66241.84;5116636;28;20184;-75
2022/07/13 01:33:21;;;;;;;6.50;6.40;;;;;;;19.37;100.00;66235.72;5098552;28;20208;-75
2022/07/13 01:35:48;;;;;;;7.43;6.93;;;;;;;19.37;100.00;66233.09;5116448;28;20237;-75
2022/07/13 01:38:14;;;;;;;6.83;6.63;;;;;;;19.37;100.00;66228.38;5116791;28;20181;-75
2022/07/13 01:40:44;;;;;;;6.47;6.17;;;;;;;;;;5116986;28;20230;-75
2022/07/13 01:43:10;;;;;;;7.27;6.93;;;;;;;19.25;100.00;66220.22;5097980;28;20212;-75
2022/07/13 01:45:38;;;;;;;7.90;6.97;;;;;;;19.18;100.00;66223.50;5098051;28;20194;-75
2022/07/13 01:48:04;;;;;;;7.27;7.07;;;;;;;19.17;100.00;66213.94;5116289;28;20724;-75
2022/07/13 01:50:31;;;;;;;7.47;7.27;;;;;;;;;;5081235;28;20193;-75
2022/07/13 01:52:57;;;;;;;8.27;7.67;;;;;;;19.12;100.00;66205.72;5116143;28;20197;-74
2022/07/13 01:55:24;;;;;;;8.33;7.77;;;;;;;;;;5097835;28;20264;-75
2022/07/13 01:57:56;;;;;;;7.27;6.97;;;;;;;19.11;100.00;66199.88;5097804;28;20213;-75
2022/07/13 02:00:22;;;;;;;6.23;6.13;;;;;;;19.10;100.00;66203.47;5098368;28;20196;-75
2022/07/13 02:02:49;;;;;;;6.57;6.47;;;;;;;19.07;100.00;66202.75;5097697;28;20200;-74
2022/07/13 02:05:20;;;;;;;7.50;7.20;;;;;;;19.03;100.00;66198.84;5097660;28;20201;-74
2022/07/13 02:07:46;;;;;;;7.63;7.40;;;;;;;19.03;100.00;66198.84;5097646;28;20254;-74
2022/07/13 02:10:13;;;;;;;6.53;6.33;;;;;;;19.07;100.00;66203.31;5097578;28;20197;-75
2022/07/13 02:12:41;;;;;;;6.47;6.17;;;;;;;19.10;100.00;66206.13;5097268;28;20253;-75
2022/07/13 02:15:08;;;;;;;7.40;7.10;;;;;;;;;;5097718;28;20559;-75
2022/07/13 02:17:37;;;;;;;7.93;7.53;;;;;;;19.16;100.00;66210.19;5115638;28;20201;-75
2022/07/13 02:20:06;;;;;;;7.07;6.93;;;;;;;19.18;100.00;66218.22;5097369;28;20567;-75
2022/07/13 02:22:43;;;;;;;6.80;6.60;;;;;;;19.23;100.00;66210.09;5115605;28;20181;-75
2022/07/13 02:25:10;;;;;;;6.43;6.23;;;;;;;19.23;100.00;66225.91;5097282;28;20267;-75
2022/07/13 02:27:38;;;;;;;5.77;5.73;;;;;;;;;;5097222;28;20754;-75
2022/07/13 02:30:06;;;;;;;7.03;6.73;;;;;;;19.16;100.00;66210.75;5097576;28;20242;-75
2022/07/13 02:32:32;;;;;;;7.17;7.00;;;;;;;;;;5115380;28;20178;-74
2022/07/13 02:34:59;;;;;;;7.80;7.30;;;;;;;;;;5098218;28;20262;-74
2022/07/13 02:37:25;;;;;;;7.30;6.73;;;;;;;19.14;100.00;66218.47;5115312;28;20209;-75
2022/07/13 02:39:53;;;;;;;6.90;6.80;;;;;;;19.16;100.00;66205.47;5115871;28;20185;-75
2022/07/13 02:42:19;;;;;;;6.70;6.60;;;;;;;;;;5115800;28;20246;-75
2022/07/13 02:44:45;;;;;;;8.00;7.60;;;;;;;;;;5115484;28;20201;-75
2022/07/13 02:47:12;;;;;;;7.37;7.17;;;;;;;19.16;100.00;66204.91;5096880;28;20659;-75
2022/07/13 02:49:38;;;;;;;8.13;7.83;;;;;;;19.19;100.00;66221.41;5115158;28;20197;-75
2022/07/13 02:52:05;;;;;;;9.20;8.57;;;;;;;;;;5096803;28;20566;-75
2022/07/13 02:54:31;;;;;;;7.47;7.17;;;;;;;;;;5114955;28;20262;-75
2022/07/13 02:56:59;;;;;;;9.77;9.27;;;;;;;19.17;100.00;66214.47;5097408;28;20224;-75
2022/07/13 02:59:25;;;;;;;8.20;7.77;;;;;;;19.13;100.00;66212.09;5114898;28;20189;-75
2022/07/13 03:01:52;;;;;;;9.20;8.73;;;;;;;19.14;100.00;66213.19;5097148;28;20276;-75
2022/07/13 03:04:19;;;;;;;7.90;7.47;;;;;;;19.11;100.00;66207.22;5096455;28;20220;-75
2022/07/13 03:06:47;;;;;;;7.53;7.17;;;;;;;19.07;100.00;66194.84;5096397;28;20242;-75
2022/07/13 03:09:13;;;;;;;9.27;8.63;;;;;;;19.09;100.00;66205.00;5096429;28;20659;-75
2022/07/13 03:11:39;;;;;;;9.27;8.67;;;;;;;19.09;100.00;66202.38;5096469;28;20200;-75
2022/07/13 03:14:06;;;;;;;8.73;8.20;;;;;;;19.11;100.00;66205.16;5096851;28;20208;-75
2022/07/13 03:16:34;;;;;;;9.00;8.60;;;;;;;19.10;100.00;66204.03;5097048;28;20215;-75
2022/07/13 03:19:01;;;;;;;8.50;8.20;;;;;;;19.14;100.00;66207.94;5096248;28;20724;-75
2022/07/13 03:21:29;;;;;;;9.17;8.70;;;;;;;19.18;100.00;66212.41;5096222;28;20212;-75
2022/07/13 03:23:56;;;;;;;9.27;8.60;;;;;;;;;;5096348;28;20208;-74
2022/07/13 03:26:23;;;;;;;8.77;8.43;;;;;;;;;;5078693;28;20193;-75
2022/07/13 03:28:51;;;;;;;9.13;8.43;;;;;;;;;;5096414;28;20234;-75
2022/07/13 03:31:18;;;;;;;8.47;7.93;;;;;;;19.21;100.00;66218.38;5096212;28;20216;-75
2022/07/13 03:33:45;;;;;;;8.63;8.00;;;;;;;19.20;100.00;66217.28;5095946;28;20297;-75
2022/07/13 03:36:13;;;;;;;9.07;8.63;;;;;;;;;;5096978;28;20555;-75
2022/07/13 03:38:39;;;;;;;8.60;8.30;;;;;;;19.21;100.00;66218.38;5114159;28;20181;-75
2022/07/13 03:41:06;;;;;;;8.23;8.03;;;;;;;19.23;100.00;66223.25;5096463;28;20193;-75
2022/07/13 03:43:32;;;;;;;7.87;7.67;;;;;;;;;;5095832;28;20591;-75
2022/07/13 03:45:59;;;;;;;7.07;6.60;;;;;;;19.18;100.00;66207.16;5095758;28;20189;-75
2022/07/13 03:48:27;;;;;;;8.13;7.73;;;;;;;19.19;100.00;66221.41;5095752;28;20189;-75
2022/07/13 03:50:53;;;;;;;7.50;7.20;;;;;;;;;;5095814;28;20685;-75
2022/07/13 03:53:21;;;;;;;7.67;7.27;;;;;;;;;;5095669;28;20636;-75
2022/07/13 03:55:47;;;;;;;7.53;7.13;;;;;;;19.19;100.00;66214.09;5095740;28;20193;-75
2022/07/13 03:58:15;;;;;;;7.80;7.50;;;;;;;19.21;100.00;66216.31;5079309;28;20216;-75
2022/07/13 04:00:43;;;;;;;7.33;7.07;;;;;;;;;;5095641;28;20189;-75
2022/07/13 04:03:10;;;;;;;6.60;6.13;;;;;;;;;;5096113;28;20300;-75
2022/07/13 04:05:37;;;;;;;6.70;6.60;;;;;;;19.24;100.00;66213.84;5095431;28;20197;-75
2022/07/13 04:08:05;;;;;;;7.63;7.43;;;;;;;19.27;100.00;66217.19;5096089;28;20191;-75
2022/07/13 04:10:31;;;;;;;6.27;6.07;;;;;;;19.25;100.00;66223.41;5113748;28;20602;-75
2022/07/13 04:12:59;;;;;;;6.50;6.37;;;;;;;19.23;100.00;66218.00;5095469;28;20239;-75
2022/07/13 04:15:31;;;;;;;6.33;6.23;;;;;;;19.19;100.00;66221.41;5096096;28;20185;-75
2022/07/13 04:17:57;;;;;;;6.77;6.37;;;;;;;19.18;100.00;66212.41;5095400;28;20208;-75
2022/07/13 04:20:24;;;;;;;6.13;6.00;;;;;;;;;;5095393;28;20284;-75
2022/07/13 04:22:51;;;;;;;6.00;5.90;;;;;;;;;;5095607;28;20185;-75
2022/07/13 04:25:18;;;;;;;6.47;6.23;;;;;;;19.18;100.00;66204.50;5095661;28;20219;-75
2022/07/13 04:27:46;;;;;;;7.43;6.93;;;;;;;19.19;100.00;66213.53;5095740;28;20189;-76
2022/07/13 04:30:12;;;;;;;6.37;5.77;;;;;;;19.18;100.00;66215.03;5113521;28;20182;-75
2022/07/13 04:32:40;;;;;;;6.63;6.40;;;;;;;19.20;100.00;66209.94;5095174;28;20654;-75
2022/07/13 04:35:07;;;;;;;6.03;5.63;;;;;;;19.21;100.00;66216.31;5095280;28;20198;-75
2022/07/13 04:37:37;;;;;;;6.40;6.23;;;;;;;;;;5098381;28;20216;-75
2022/07/13 04:40:04;;;;;;;6.30;6.03;;;;;;;19.25;100.00;66220.22;5099305;28;20605;-75
2022/07/13 04:42:33;;;;;;;7.07;6.87;;;;;;;;;;5099226;28;20758;-74
2022/07/13 04:44:59;;;;;;;7.97;7.40;;;;;;;19.34;100.00;66232.34;5099271;28;20197;-74
2022/07/13 04:47:26;;;;;;;7.57;6.97;;;;;;;;;;5099339;28;20678;-74
2022/07/13 04:49:53;;;;;;;6.83;6.40;;;;;;;19.35;100.00;66225.56;5099177;28;20189;-74
2022/07/13 04:52:19;;;;;;;6.10;6.00;;;;;;;19.30;100.00;66225.81;5099148;28;20195;-74
2022/07/13 04:54:46;;;;;;;7.27;7.03;;;;;;;19.29;100.00;66227.34;5099042;28;20212;-73
2022/07/13 04:57:18;;;;;;;7.47;6.83;;;;;;;;;;5098965;28;20690;-74
2022/07/13 04:59:45;;;;;;;6.97;6.43;;;;;;;19.31;100.00;66226.38;5099009;28;20196;-74
2022/07/13 05:02:11;;;;;;;6.57;6.37;;;;;;;;;;5098963;28;20181;-74
2022/07/13 05:04:38;;;;;;;6.47;6.30;;;;;;;;;;5098636;28;20587;-74
2022/07/13 05:07:04;;;;;;;8.17;7.50;;;;;;;;;;5098884;28;20189;-74
2022/07/13 05:09:32;;;;;;;7.47;7.00;;;;;;;19.46;100.00;66243.69;5098752;28;20186;-74
2022/07/13 05:11:59;;;;;;;6.97;6.87;;;;;;;19.53;100.00;66251.50;5098714;28;20218;-74
2022/07/13 05:14:26;;;;;;;6.80;6.53;;;;;;;;;;5099701;28;20253;-75
2022/07/13 05:16:53;;;;;;;8.00;5.40;;;;;;;19.63;100.00;66261.56;5098600;28;20612;-75
2022/07/13 05:19:20;;;;;;;6.07;5.97;;;;;;;19.63;100.00;66262.13;5098557;28;20201;-74
2022/07/13 05:21:48;;;;;;;6.30;6.10;;;;;;;19.69;100.00;66268.28;5098608;28;20242;-74
2022/07/13 05:24:15;;;;;;;6.30;5.90;;;;;;;;;;5098364;28;20635;-74
2022/07/13 05:26:42;;;;;;;6.23;6.00;;;;;;;;;;5117015;28;20211;-74
2022/07/13 05:29:09;;;;;;;6.47;6.03;;;;;;;19.87;100.00;66291.03;5098337;28;20213;-74
2022/07/13 05:31:36;;;;;;;6.00;5.90;;;;;;;;;;5098345;28;20590;-74
2022/07/13 05:34:04;;;;;;;5.97;5.57;;;;;;;;;;5098291;28;20201;-74
2022/07/13 05:36:35;;;;;;;5.70;5.50;;;;;;;20.13;100.00;66319.53;5117134;28;20210;-74
2022/07/13 05:39:01;;;;;;;6.30;6.07;;;;;;;20.19;100.00;66325.69;5098040;28;20590;-74
2022/07/13 05:41:28;;;;;;;6.33;6.13;;;;;;;;;;5098195;28;20284;-76
2022/07/13 05:43:54;;;;;;;5.70;5.17;;;;;;;20.35;100.00;66340.91;5098023;28;20213;-74
2022/07/13 05:46:22;;;;;;;4.80;4.60;;;;;;;20.41;100.00;66339.72;5098429;28;20190;-74
2022/07/13 05:48:49;;;;;;;5.73;5.63;;;;;;;20.49;100.00;66351.31;5097300;28;20540;-75
2022/07/13 05:51:15;;;;;;;5.67;5.47;;;;;;;20.56;100.00;66363.88;5116255;28;20186;-75
2022/07/13 05:54:00;;;;;;;5.37;5.27;;;;;;;;;;5098033;28;20224;-74
2022/07/13 05:56:44;;;;;;;6.73;5.47;;;;;;;20.65;100.00;66368.66;5097890;28;20690;-74
2022/07/13 05:59:11;;;;;;;5.00;4.90;;;;;;;;;;5116333;28;20555;-74
2022/07/13 06:01:37;;;;;;;5.97;5.37;;;;;;;20.76;100.00;66388.88;5116283;28;20220;-74
2022/07/13 06:04:04;;;;;;;7.67;5.70;;;;;;;20.86;100.00;66397.44;5116397;28;20288;-74
2022/07/13 06:06:30;;;;;;;5.90;5.70;;;;;;;;;;5115901;28;20228;-75
2022/07/13 06:08:56;;;;;;;6.30;6.10;;;;;;;21.02;100.00;66409.47;5118338;27;20189;-74
2022/07/13 06:11:23;;;;;;;5.60;5.27;;;;;;;;;;5115895;28;20189;-74
2022/07/13 06:13:49;;;;;;;5.63;5.43;;;;;;;21.17;100.00;66431.53;5115935;28;20555;-74
2022/07/13 06:16:15;;;;;;;4.73;4.50;;;;;;;;;;5116084;28;20189;-74
2022/07/13 06:18:42;;;;;;;3.93;3.40;;;;;;;21.35;97.27;66445.28;5114738;27;20197;-74
2022/07/13 06:21:08;;;;;;;5.03;4.00;;;;;;;;;;5114733;28;20181;-74
2022/07/13 06:23:35;;;;;;;3.10;2.90;;;;;;;;;;5114956;27;20262;-74
2022/07/13 06:26:01;;;;;;;3.33;3.33;;;;;;;;;;5115272;27;20613;-74
2022/07/13 06:28:28;;;;;;;6.40;3.10;;;;;;;21.73;91.30;66492.53;5113111;28;20189;-74
2022/07/13 06:30:54;;;;;;;2.90;2.90;;;;;;;;;;5113991;27;20242;-74
2022/07/13 06:33:20;;;;;;;9.27;3.17;;;;;;;21.96;89.55;66518.28;5115333;28;20216;-74
2022/07/13 06:35:47;;;;;;;5.80;2.60;;;;;;;22.39;80.79;66564.75;5082878;28;20221;-75
2022/07/13 06:38:14;;;;;;;6.47;3.23;;;;;;;;;;5109840;27;20609;-74
2022/07/13 06:40:41;;;;;;;2.63;2.53;;;;;;;;;;5112315;27;20242;-74
2022/07/13 06:43:07;;;;;;;3.10;2.90;;;;;;;;;;5120140;27;20212;-74
2022/07/13 06:45:34;;;;;;;2.53;2.33;;;;;;;;;;5098369;28;20544;-74
2022/07/13 06:48:00;;;;;;;2.97;2.63;;;;;;;23.51;71.85;66677.97;5114797;27;20255;-75
2022/07/13 06:50:27;;;;;;;2.97;2.70;;;;;;;23.69;71.41;66708.22;5113756;27;20197;-75
2022/07/13 06:52:53;;;;;;;5.77;3.20;;;;;;;23.71;72.43;66713.09;5104618;27;20790;-75
2022/07/13 06:55:20;;;;;;;2.60;2.53;;;;;;;;;;5109456;27;20624;-75
2022/07/13 06:57:47;;;;;;;3.13;3.13;;;;;;;;;;5107790;27;20274;-75
2022/07/13 07:00:13;;;;;;;5.60;2.33;;;;;;;;;;5112342;28;20228;-75
2022/07/13 07:02:40;;;;;;;6.23;2.50;;;;;;;;;;5114763;28;20272;-75
2022/07/13 07:05:09;;;;;;;8.73;3.05;;;;;;;;;;5114717;28;20236;-75
2022/07/13 07:07:36;;;;;;;3.40;3.28;;;;;;;;;;5114776;28;20199;-75
2022/07/13 07:10:03;;;;;;;2.37;2.37;;;;;;;24.00;67.51;66736.53;5114704;28;20242;-75
2022/07/13 07:12:29;;;;;;;3.60;2.80;;;;;;;;;;5114633;28;20243;-75
2022/07/13 07:14:56;;;;;;;2.47;2.38;;;;;;;24.15;66.85;66761.91;5113549;27;20244;-74
2022/07/13 07:17:22;;;;;;;2.40;2.40;;;;;;;24.18;68.83;66754.06;5113583;27;20243;-75
2022/07/13 07:19:49;;;;;;;6.77;2.73;;;;;;;24.21;66.73;66768.03;5109898;27;20608;-74
2022/07/13 07:22:15;;;;;;;4.40;2.60;;;;;;;;;;5114437;27;20225;-74
2022/07/13 07:24:42;;;;;;;2.50;2.50;;;;;;;;;;5110101;27;20247;-75
2022/07/13 07:27:10;;;;;;;2.50;2.40;;;;;;;;;;5113175;27;20566;-74
2022/07/13 07:29:37;;;;;;;2.63;2.58;;;;;;;;;;5112178;27;20192;-74
2022/07/13 07:32:04;;;;;;;2.78;2.60;;;;;;;24.25;65.96;66772.53;5112113;27;20173;-75
2022/07/13 07:34:31;;;;;;;2.92;2.83;;;;;;;;;;5112728;28;20262;-75
2022/07/13 07:36:57;;;;;;;2.72;2.72;;;;;;;24.22;65.56;66766.53;5114819;28;20181;-75
2022/07/13 07:39:24;;;;;;;2.50;2.40;;;;;;;24.23;66.51;66770.31;5111566;27;20243;-75
2022/07/13 07:41:50;;;;;;;3.85;2.72;;;;;;;24.37;66.17;66785.47;5109029;27;20196;-75
2022/07/13 07:44:18;;;;;;;3.00;2.45;;;;;;;;;;5112801;27;20241;-75
2022/07/13 07:46:51;;;;;;;2.88;2.78;;;;;;;;;;5115137;27;20188;-75
2022/07/13 07:49:18;;;;;;;3.33;2.35;;;;;;;;;;5112516;28;20647;-75
2022/07/13 07:51:44;;;;;;;3.92;2.97;;;;;;;;;;5112497;28;20225;-75
2022/07/13 07:54:30;;;;;;;2.70;2.70;;;;;;;24.67;64.98;66815.91;5125223;27;20291;-75
2022/07/13 07:56:57;;;;;;;2.60;2.40;;;;;;;24.74;64.71;66817.88;5114004;28;20596;-76
2022/07/13 07:59:24;;;;;;;2.50;2.35;;;;;;;24.82;65.84;66832.72;5117589;28;20208;-75
2022/07/13 08:01:50;;;;;;;2.90;2.90;;;;;;;24.79;65.11;66824.06;5134456;27;20184;-75
2022/07/13 08:04:17;;;;;;;4.22;2.10;;;;;;;;;;5109507;28;20247;-74
2022/07/13 08:06:43;;;;;;;2.13;2.13;;;;;;;24.93;66.01;66845.06;5108567;28;20264;-72
2022/07/13 08:09:10;;;;;;;3.05;2.88;;;;;;;25.04;65.51;66848.91;5112740;28;20242;-74
2022/07/13 08:11:37;;;;;;;2.80;2.70;;;;;;;25.12;64.05;66857.31;5112287;28;20667;-75
2022/07/13 08:14:03;;;;;;;2.53;2.53;;;;;;;25.10;63.80;66857.72;5112074;27;20258;-75
2022/07/13 08:16:29;;;;;;;2.38;2.30;;;;;;;25.11;65.31;66859.41;5111063;28;20189;-75
2022/07/13 08:18:56;;;;;;;3.10;2.60;;;;;;;25.19;65.67;66873.16;5111981;28;20201;-75
2022/07/13 08:21:42;;;;;;;4.05;2.67;;;;;;;25.31;60.90;66881.31;5109383;28;20387;-74
2022/07/13 08:24:09;;;;;;;6.35;2.20;;;;;;;25.21;63.08;66878.59;5109323;28;20221;-76
2022/07/13 08:26:35;;;;;;;4.38;2.20;;;;;;;;;;5108916;28;20193;-75
2022/07/13 08:29:02;;;;;;;2.88;2.50;;;;;;;25.25;62.13;66874.56;5112179;28;20189;-75
2022/07/13 08:31:29;;;;;;;7.32;2.30;;;;;;;25.28;62.25;66877.91;5112142;28;20243;-75
2022/07/13 08:39:26;;;;;;;4.20;2.90;;;;;;;;;;5095534;28;20242;-74
2022/07/13 08:41:56;;;;;;;5.38;2.85;;;;;;;25.28;62.20;66885.91;5113546;28;20197;-74
2022/07/13 08:44:24;;;;;;;2.90;2.45;;;;;;;25.31;62.40;66886.63;5107154;28;20221;-74
2022/07/13 08:46:51;;;;;;;2.50;2.50;;;;;;;25.24;62.68;66878.75;5110584;28;20242;-75
2022/07/13 08:49:18;;;;;;;2.15;2.10;;;;;;;;;;5111135;28;20280;-75
2022/07/13 08:51:46;;;;;;;2.28;2.28;;;;;;;25.49;62.87;66901.50;5112614;28;20207;-74
2022/07/13 08:54:12;;;;;;;2.33;2.33;;;;;;;25.55;62.83;66915.09;5113110;28;20217;-75
2022/07/13 08:56:41;;;;;;;2.40;2.30;;;;;;;;;;5113435;28;20185;-75
2022/07/13 08:59:08;;;;;;;3.05;2.92;;;;;;;;;;5113224;28;20260;-75
2022/07/13 09:01:34;;;;;;;2.65;2.65;;;;;;;25.58;61.40;66916.38;5112927;28;20185;-75
2022/07/13 09:04:01;;;;;;;3.60;2.97;;;;;;;;;;5112153;28;20280;-75
2022/07/13 09:06:43;;;;;;;8.10;2.55;;;;;;;25.67;62.93;66921.16;5112410;28;20205;-75
2022/07/13 09:09:28;;;;;;;2.80;2.60;;;;;;;;;;5131918;28;20237;-75
2022/07/13 09:12:19;;;;;;;12.95;3.05;;;;;;;;;;5094383;28;20278;-75
2022/07/13 09:14:58;;;;;;;3.13;3.03;;;;;;;;;;5106541;28;20274;-75
2022/07/13 09:17:33;;;;;;;3.53;3.20;;;;;;;;;;5113082;28;20230;-75
2022/07/13 09:20:03;;;;;;;11.52;2.85;;;;;;;;;;5111275;28;20631;-74
2022/07/13 09:22:30;;;;;;;2.67;2.58;;;;;;;25.95;61.59;66952.06;5111020;28;20604;-75
2022/07/13 09:24:57;;;;;;;3.35;3.08;;;;;;;25.98;61.07;66955.41;5112059;28;20691;-75
2022/07/13 09:27:24;;;;;;;2.40;2.40;;;;;;;25.99;61.97;66961.84;5109351;28;20224;-76
2022/07/13 09:29:50;;;;;;;2.85;2.75;;;;;;;;;;5119771;27;20236;-74
2022/07/13 09:32:16;;;;;;;4.22;2.50;;;;;;;;;;5116612;28;20238;-75
2022/07/13 09:34:51;;;;;;;10.35;2.67;;;;;;;;;;5119930;27;20216;-75
2022/07/13 09:37:23;;;;;;;2.50;2.35;;;;;;;26.30;61.68;66995.56;5121771;27;20187;-76
2022/07/13 09:40:08;;;;;;;3.60;2.15;;;;;;;;;;5116596;28;20235;-76
2022/07/13 09:42:39;;;;;;;2.92;2.72;;;;;;;;;;5115510;28;20659;-74
2022/07/13 09:47:59;;;;;;;2.67;2.58;;;;;;;26.52;60.34;67019.72;5103146;28;20189;-74
2022/07/13 09:50:36;;;;;;;2.10;2.10;;;;;;;;;;5120641;27;20580;-74
2022/07/13 09:53:22;;;;;;;3.50;2.40;;;;;;;;;;5115290;28;20254;-75
2022/07/13 09:55:51;;;;;;;3.45;2.33;;;;;;;26.87;61.89;67058.50;5111016;28;20230;-74
2022/07/13 09:58:25;;;;;;;14.15;2.58;;;;;;;26.86;60.26;67060.03;5113864;28;20621;-74
2022/07/13 10:00:53;;;;;;;2.22;2.13;;;;;;;;;;5114951;28;20639;-74
2022/07/13 10:03:20;;;;;;;2.20;2.15;;;;;;;;;;5114733;28;20213;-75
2022/07/13 10:05:48;;;;;;;2.38;2.38;;;;;;;26.94;58.71;67065.81;5114811;28;20728;-75
2022/07/13 10:08:16;;;;;;;3.85;2.13;;;;;;;27.06;59.87;67079.31;5114729;28;20185;-74
2022/07/13 10:10:44;;;;;;;2.90;2.70;;;;;;;27.03;59.19;67079.16;5114939;28;20543;-74
2022/07/13 10:13:12;;;;;;;2.60;2.60;;;;;;;;;;5115259;28;20201;-76
2022/07/13 10:15:39;;;;;;;7.13;3.10;;;;;;;27.09;60.25;67077.91;5115882;28;20208;-75
2022/07/13 10:18:09;;;;;;;2.97;2.88;;;;;;;27.01;60.18;67068.91;5115998;28;20211;-76
2022/07/13 10:20:37;;;;;;;4.13;2.30;;;;;;;;;;5116026;28;20184;-75
2022/07/13 10:23:05;;;;;;;2.50;2.50;;;;;;;26.85;60.03;67050.91;5115829;28;20213;-76
2022/07/13 10:25:43;;;;;;;6.60;2.47;;;;;;;26.86;60.93;67060.03;5115665;28;20200;-76
2022/07/13 10:28:12;;;;;;;2.50;2.50;;;;;;;26.87;60.65;67058.50;5115647;28;20181;-76
2022/07/13 10:30:39;;;;;;;2.38;2.28;;;;;;;27.16;60.65;67085.22;5115740;27;20189;-75
2022/07/13 10:33:20;;;;;;;4.57;2.20;;;;;;;;;;5111478;28;20224;-75
2022/07/13 10:35:49;;;;;;;8.27;2.33;;;;;;;27.51;60.01;67121.34;5109760;28;21643;-74
2022/07/13 10:38:20;;;;;;;2.67;2.28;;;;;;;;;;5108169;28;20185;-74
2022/07/13 10:40:46;;;;;;;4.68;3.08;;;;;;;;;;5107614;28;20587;-74
2022/07/13 10:43:15;;;;;;;13.35;2.28;;;;;;;27.64;58.52;67146.06;5112745;28;20213;-74
2022/07/13 10:45:48;;;;;;;2.33;2.33;;;;;;;27.85;59.17;67161.69;5113779;28;20238;-74
2022/07/13 10:48:32;;;;;;;2.72;2.35;;;;;;;27.86;57.28;67162.81;5113996;28;20230;-74
2022/07/13 10:50:59;;;;;;;4.10;2.05;;;;;;;;;;5112003;28;20230;-76
2022/07/13 10:53:37;;;;;;;18.23;3.00;;;;;;;27.89;57.58;67170.97;5111532;28;20279;-75
2022/07/13 10:56:14;;;;;;;6.38;2.30;;;;;;;;;;5103108;28;20536;-75
2022/07/13 10:58:42;;;;;;;2.65;2.55;;;;;;;27.65;58.25;67137.09;5113780;28;20185;-75
2022/07/13 11:01:41;;;;;;;2.30;2.15;;;;;;;27.62;58.05;67141.69;5114385;28;20185;-74
2022/07/13 11:04:09;;;;;;;2.15;2.15;;;;;;;27.64;58.31;67143.38;5108184;28;20220;-75
2022/07/13 11:06:36;;;;;;;2.88;2.55;;;;;;;27.74;59.38;67154.09;5113241;28;20222;-75
2022/07/13 11:09:10;;;;;;;2.47;2.33;;;;;;;27.78;58.99;67161.25;5109383;28;20197;-74
2022/07/13 11:11:47;;;;;;;4.57;2.03;;;;;;;;;;5113552;28;20197;-75
2022/07/13 11:14:32;;;;;;;2.20;2.20;;;;;;;;;;5113609;28;20208;-75
2022/07/13 11:17:13;;;;;;;4.57;2.03;;;;;;;27.74;57.91;67146.66;5111933;28;20272;-75
2022/07/13 11:19:58;;;;;;;7.55;1.90;;;;;;;;;;5111156;28;20601;-74
2022/07/13 11:25:35;;;;;;;2.30;2.25;;;;;;;;;;5074898;28;20620;-75
2022/07/13 11:28:07;;;;;;;2.20;2.17;;;;;;;;;;5110760;28;20181;-75
2022/07/13 11:30:35;;;;;;;2.40;2.30;;;;;;;27.26;60.84;67093.78;5110618;28;20177;-76
2022/07/13 11:33:02;;;;;;;3.15;2.42;;;;;;;;;;5112696;28;20255;-74
2022/07/13 11:35:28;;;;;;;11.10;2.13;;;;;;;;;;5107755;28;20186;-73
2022/07/13 11:37:56;;;;;;;4.30;3.25;;;;;;;27.31;61.10;67107.41;5106946;28;20234;-74
2022/07/13 11:40:31;;;;;;;4.13;2.40;;;;;;;27.28;60.69;67103.47;5107627;28;20201;-73
2022/07/13 11:43:00;;;;;;;2.63;2.35;;;;;;;27.28;61.12;67106.69;5106337;28;20745;-74
2022/07/13 11:45:31;;;;;;;2.85;2.80;;;;;;;27.57;61.63;67138.75;5080521;28;20238;-75
2022/07/13 11:47:58;;;;;;;11.82;2.72;;;;;;;;;;5108776;28;20189;-75
2022/07/13 11:50:38;;;;;;;2.13;2.13;;;;;;;;;;5110638;28;20185;-74
2022/07/13 11:53:05;;;;;;;2.75;2.75;;;;;;;27.63;61.01;67145.50;5108870;28;20332;-74
2022/07/13 11:55:32;;;;;;;2.97;2.67;;;;;;;27.75;62.44;67155.22;5110055;28;20647;-75
2022/07/13 11:57:59;;;;;;;6.28;3.13;;;;;;;27.59;61.38;67132.44;5096505;28;20604;-75
2022/07/13 12:00:25;;;;;;;2.95;2.85;;;;;;;;;;5110327;28;20581;-75
2022/07/13 12:02:52;;;;;;;3.05;3.05;;;;;;;27.43;64.10;67120.91;5108504;28;20213;-75
2022/07/13 12:05:26;;;;;;;2.78;2.78;;;;;;;27.49;62.00;67119.06;5113583;28;20204;-75
2022/07/13 12:08:05;;;;;;;2.55;2.55;;;;;;;27.47;64.24;67127.50;5111105;28;20250;-75
2022/07/13 12:10:35;;;;;;;3.22;2.88;;;;;;;27.54;61.97;67137.47;5110707;28;20188;-74
2022/07/13 12:13:02;;;;;;;3.50;3.30;;;;;;;;;;5110669;28;20254;-75
2022/07/13 12:15:28;;;;;;;3.42;3.33;;;;;;;;;;5109479;28;20220;-74
2022/07/13 12:17:55;;;;;;;3.30;3.28;;;;;;;27.41;60.99;67112.75;5107988;28;20189;-74
2022/07/13 12:20:23;;;;;;;2.95;2.95;;;;;;;27.41;61.72;67112.75;5113178;28;20201;-74
2022/07/13 12:22:50;;;;;;;2.95;2.95;;;;;;;;;;5092145;28;20188;-75
2022/07/13 12:25:28;;;;;;;5.15;3.17;;;;;;;27.42;62.51;67119.22;5105287;28;20193;-75
2022/07/13 12:27:59;;;;;;;5.95;2.58;;;;;;;27.40;61.12;67112.19;5110766;28;20719;-75
2022/07/13 12:30:26;;;;;;;3.90;2.90;;;;;;;27.41;59.28;67118.09;5111357;28;20276;-75
2022/07/13 12:33:05;;;;;;;2.72;2.67;;;;;;;27.38;59.58;67117.94;5110569;28;20296;-74
2022/07/13 12:35:38;;;;;;;3.72;3.40;;;;;;;;;;5104061;28;20181;-74
2022/07/13 12:38:08;;;;;;;3.78;2.80;;;;;;;;;;5111868;28;20189;-73
2022/07/13 12:40:41;;;;;;;2.60;2.58;;;;;;;;;;5113291;28;20258;-74
2022/07/13 12:43:16;;;;;;;4.97;2.67;;;;;;;;;;5113384;28;20204;-75
2022/07/13 12:45:46;;;;;;;3.67;3.35;;;;;;;;;;5109842;28;20192;-74
2022/07/13 12:48:13;;;;;;;2.92;2.92;;;;;;;;;;5109195;28;20238;-74
2022/07/13 12:50:40;;;;;;;2.97;2.83;;;;;;;27.70;59.03;67145.38;5112788;28;20246;-74
2022/07/13 12:53:07;;;;;;;3.05;3.05;;;;;;;28.02;59.67;67185.59;5113224;28;20204;-74